sensor_id;sensor_type;location;lat;lon;timestamp;P1;durP1;ratioP1;P2;durP2;ratioP2
18793;SDS011;29610;49.022;12.114;2022-07-22T00:01:05;33.10;;;16.97;;
18793;SDS011;29610;49.022;12.114;2022-07-22T00:03:33;33.90;;;19.73;;
18793;SDS011;29610;49.022;12.114;2022-07-22T00:06:05;33.60;;;19.77;;
18793;SDS011;29610;49.022;12.114;2022-07-22T00:08:34;35.77;;;19.27;;
18793;SDS011;29610;49.022;12.114;2022-07-22T00:11:07;33.23;;;19.63;;
18793;SDS011;29610;49.022;12.114;2022-07-22T00:13:35;30.50;;;17.67;;
18793;SDS011;29610;49.022;12.114;2022-07-22T00:16:04;33.10;;;18.70;;
18793;SDS011;29610;49.022;12.114;2022-07-22T00:18:34;32.47;;;17.50;;
18793;SDS011;29610;49.022;12.114;2022-07-22T00:21:06;31.70;;;18.23;;
18793;SDS011;29610;49.022;12.114;2022-07-22T00:23:37;30.23;;;18.47;;
18793;SDS011;29610;49.022;12.114;2022-07-22T00:26:07;28.93;;;17.30;;
18793;SDS011;29610;49.022;12.114;2022-07-22T00:28:35;37.80;;;19.07;;
18793;SDS011;29610;49.022;12.114;2022-07-22T00:31:05;32.77;;;18.40;;
18793;SDS011;29610;49.022;12.114;2022-07-22T00:33:33;32.37;;;18.53;;
18793;SDS011;29610;49.022;12.114;2022-07-22T00:36:04;35.33;;;19.70;;
18793;SDS011;29610;49.022;12.114;2022-07-22T00:38:34;37.30;;;20.03;;
18793;SDS011;29610;49.022;12.114;2022-07-22T00:41:07;35.53;;;19.63;;
18793;SDS011;29610;49.022;12.114;2022-07-22T00:43:48;32.77;;;17.87;;
18793;SDS011;29610;49.022;12.114;2022-07-22T00:46:22;33.33;;;19.10;;
18793;SDS011;29610;49.022;12.114;2022-07-22T00:48:52;32.67;;;18.83;;
18793;SDS011;29610;49.022;12.114;2022-07-22T00:51:22;31.80;;;17.97;;
18793;SDS011;29610;49.022;12.114;2022-07-22T00:53:53;34.00;;;20.27;;
18793;SDS011;29610;49.022;12.114;2022-07-22T00:56:24;38.13;;;19.17;;
18793;SDS011;29610;49.022;12.114;2022-07-22T00:58:55;33.10;;;18.43;;
18793;SDS011;29610;49.022;12.114;2022-07-22T01:01:28;30.67;;;17.83;;
18793;SDS011;29610;49.022;12.114;2022-07-22T01:03:57;32.83;;;18.50;;
18793;SDS011;29610;49.022;12.114;2022-07-22T01:06:27;32.73;;;20.40;;
18793;SDS011;29610;49.022;12.114;2022-07-22T01:08:56;29.53;;;18.00;;
18793;SDS011;29610;49.022;12.114;2022-07-22T01:11:27;31.00;;;17.70;;
18793;SDS011;29610;49.022;12.114;2022-07-22T01:13:56;30.63;;;18.63;;
18793;SDS011;29610;49.022;12.114;2022-07-22T01:16:26;30.90;;;18.20;;
18793;SDS011;29610;49.022;12.114;2022-07-22T01:18:55;32.57;;;18.13;;
18793;SDS011;29610;49.022;12.114;2022-07-22T01:21:25;31.77;;;17.80;;
18793;SDS011;29610;49.022;12.114;2022-07-22T01:23:55;32.67;;;17.73;;
18793;SDS011;29610;49.022;12.114;2022-07-22T01:26:23;38.00;;;19.33;;
18793;SDS011;29610;49.022;12.114;2022-07-22T01:28:52;36.30;;;19.53;;
18793;SDS011;29610;49.022;12.114;2022-07-22T01:31:21;29.37;;;18.13;;
18793;SDS011;29610;49.022;12.114;2022-07-22T01:33:50;31.83;;;18.77;;
18793;SDS011;29610;49.022;12.114;2022-07-22T01:36:19;35.03;;;19.87;;
18793;SDS011;29610;49.022;12.114;2022-07-22T01:38:50;29.37;;;17.30;;
18793;SDS011;29610;49.022;12.114;2022-07-22T01:41:19;33.37;;;19.47;;
18793;SDS011;29610;49.022;12.114;2022-07-22T01:43:48;34.13;;;18.70;;
18793;SDS011;29610;49.022;12.114;2022-07-22T01:46:17;29.93;;;18.30;;
18793;SDS011;29610;49.022;12.114;2022-07-22T01:48:46;32.40;;;19.37;;
18793;SDS011;29610;49.022;12.114;2022-07-22T01:51:16;34.80;;;18.50;;
18793;SDS011;29610;49.022;12.114;2022-07-22T01:53:44;35.87;;;19.90;;
18793;SDS011;29610;49.022;12.114;2022-07-22T01:56:15;32.93;;;19.00;;
18793;SDS011;29610;49.022;12.114;2022-07-22T01:58:48;33.10;;;18.20;;
18793;SDS011;29610;49.022;12.114;2022-07-22T02:01:21;33.43;;;19.97;;
18793;SDS011;29610;49.022;12.114;2022-07-22T02:03:52;33.33;;;19.80;;
18793;SDS011;29610;49.022;12.114;2022-07-22T02:06:21;36.00;;;20.30;;
18793;SDS011;29610;49.022;12.114;2022-07-22T02:08:53;35.70;;;21.50;;
18793;SDS011;29610;49.022;12.114;2022-07-22T02:11:44;33.67;;;20.87;;
18793;SDS011;29610;49.022;12.114;2022-07-22T02:14:14;36.20;;;21.27;;
18793;SDS011;29610;49.022;12.114;2022-07-22T02:16:43;35.17;;;21.20;;
18793;SDS011;29610;49.022;12.114;2022-07-22T02:19:12;35.77;;;21.17;;
18793;SDS011;29610;49.022;12.114;2022-07-22T02:21:40;38.17;;;22.00;;
18793;SDS011;29610;49.022;12.114;2022-07-22T02:24:09;36.10;;;21.27;;
18793;SDS011;29610;49.022;12.114;2022-07-22T02:26:37;40.60;;;20.93;;
18793;SDS011;29610;49.022;12.114;2022-07-22T02:29:08;36.37;;;20.53;;
18793;SDS011;29610;49.022;12.114;2022-07-22T02:31:36;40.33;;;22.53;;
18793;SDS011;29610;49.022;12.114;2022-07-22T02:34:07;36.60;;;21.43;;
18793;SDS011;29610;49.022;12.114;2022-07-22T02:36:36;36.70;;;20.57;;
18793;SDS011;29610;49.022;12.114;2022-07-22T02:39:04;34.03;;;20.90;;
18793;SDS011;29610;49.022;12.114;2022-07-22T02:41:33;36.60;;;20.93;;
18793;SDS011;29610;49.022;12.114;2022-07-22T02:44:02;35.10;;;19.97;;
18793;SDS011;29610;49.022;12.114;2022-07-22T02:46:33;34.67;;;20.27;;
18793;SDS011;29610;49.022;12.114;2022-07-22T02:49:12;37.87;;;21.10;;
18793;SDS011;29610;49.022;12.114;2022-07-22T02:51:43;34.10;;;21.37;;
18793;SDS011;29610;49.022;12.114;2022-07-22T02:54:11;38.53;;;21.50;;
18793;SDS011;29610;49.022;12.114;2022-07-22T02:56:40;38.20;;;21.90;;
18793;SDS011;29610;49.022;12.114;2022-07-22T02:59:08;39.17;;;23.30;;
18793;SDS011;29610;49.022;12.114;2022-07-22T03:01:38;37.43;;;22.43;;
18793;SDS011;29610;49.022;12.114;2022-07-22T03:04:07;34.70;;;21.00;;
18793;SDS011;29610;49.022;12.114;2022-07-22T03:06:37;37.60;;;21.80;;
18793;SDS011;29610;49.022;12.114;2022-07-22T03:09:24;37.43;;;21.87;;
18793;SDS011;29610;49.022;12.114;2022-07-22T03:11:52;36.03;;;21.53;;
18793;SDS011;29610;49.022;12.114;2022-07-22T03:14:21;42.20;;;22.30;;
18793;SDS011;29610;49.022;12.114;2022-07-22T03:16:51;38.00;;;21.87;;
18793;SDS011;29610;49.022;12.114;2022-07-22T03:19:20;38.67;;;21.30;;
18793;SDS011;29610;49.022;12.114;2022-07-22T03:21:51;36.03;;;21.43;;
18793;SDS011;29610;49.022;12.114;2022-07-22T03:24:19;36.47;;;22.20;;
18793;SDS011;29610;49.022;12.114;2022-07-22T03:26:48;43.93;;;23.90;;
18793;SDS011;29610;49.022;12.114;2022-07-22T03:29:16;44.00;;;25.70;;
18793;SDS011;29610;49.022;12.114;2022-07-22T03:31:45;40.17;;;24.00;;
18793;SDS011;29610;49.022;12.114;2022-07-22T03:34:17;39.87;;;23.50;;
18793;SDS011;29610;49.022;12.114;2022-07-22T03:36:54;37.70;;;22.20;;
18793;SDS011;29610;49.022;12.114;2022-07-22T03:39:22;43.83;;;24.07;;
18793;SDS011;29610;49.022;12.114;2022-07-22T03:41:51;46.73;;;23.10;;
18793;SDS011;29610;49.022;12.114;2022-07-22T03:44:19;46.40;;;25.67;;
18793;SDS011;29610;49.022;12.114;2022-07-22T03:46:48;43.43;;;23.57;;
18793;SDS011;29610;49.022;12.114;2022-07-22T03:49:19;44.67;;;25.13;;
18793;SDS011;29610;49.022;12.114;2022-07-22T03:51:47;35.47;;;20.67;;
18793;SDS011;29610;49.022;12.114;2022-07-22T03:54:17;34.97;;;22.07;;
18793;SDS011;29610;49.022;12.114;2022-07-22T03:56:46;39.00;;;23.87;;
18793;SDS011;29610;49.022;12.114;2022-07-22T03:59:14;36.43;;;23.33;;
18793;SDS011;29610;49.022;12.114;2022-07-22T04:01:43;38.13;;;23.90;;
18793;SDS011;29610;49.022;12.114;2022-07-22T04:04:13;36.10;;;23.10;;
18793;SDS011;29610;49.022;12.114;2022-07-22T04:06:45;39.90;;;24.03;;
18793;SDS011;29610;49.022;12.114;2022-07-22T04:09:19;45.80;;;25.27;;
18793;SDS011;29610;49.022;12.114;2022-07-22T04:11:48;41.73;;;23.00;;
18793;SDS011;29610;49.022;12.114;2022-07-22T04:14:18;43.43;;;24.83;;
18793;SDS011;29610;49.022;12.114;2022-07-22T04:16:47;43.70;;;26.30;;
18793;SDS011;29610;49.022;12.114;2022-07-22T04:19:16;43.40;;;24.83;;
18793;SDS011;29610;49.022;12.114;2022-07-22T04:21:54;46.70;;;24.53;;
18793;SDS011;29610;49.022;12.114;2022-07-22T04:24:26;45.60;;;25.93;;
18793;SDS011;29610;49.022;12.114;2022-07-22T04:26:56;43.67;;;25.97;;
18793;SDS011;29610;49.022;12.114;2022-07-22T04:29:24;44.70;;;25.40;;
18793;SDS011;29610;49.022;12.114;2022-07-22T04:31:53;39.77;;;24.77;;
18793;SDS011;29610;49.022;12.114;2022-07-22T04:34:28;45.77;;;25.03;;
18793;SDS011;29610;49.022;12.114;2022-07-22T04:36:59;42.47;;;26.23;;
18793;SDS011;29610;49.022;12.114;2022-07-22T04:39:33;43.43;;;26.47;;
18793;SDS011;29610;49.022;12.114;2022-07-22T04:42:02;38.10;;;23.07;;
18793;SDS011;29610;49.022;12.114;2022-07-22T04:44:32;38.50;;;23.57;;
18793;SDS011;29610;49.022;12.114;2022-07-22T04:47:01;44.73;;;24.80;;
18793;SDS011;29610;49.022;12.114;2022-07-22T04:49:36;39.93;;;24.07;;
18793;SDS011;29610;49.022;12.114;2022-07-22T04:52:07;37.43;;;23.90;;
18793;SDS011;29610;49.022;12.114;2022-07-22T04:54:42;42.13;;;21.67;;
18793;SDS011;29610;49.022;12.114;2022-07-22T04:57:12;39.20;;;22.57;;
18793;SDS011;29610;49.022;12.114;2022-07-22T04:59:41;34.73;;;20.33;;
18793;SDS011;29610;49.022;12.114;2022-07-22T05:02:09;36.23;;;20.70;;
18793;SDS011;29610;49.022;12.114;2022-07-22T05:04:40;34.70;;;21.30;;
18793;SDS011;29610;49.022;12.114;2022-07-22T05:07:10;35.60;;;20.90;;
18793;SDS011;29610;49.022;12.114;2022-07-22T05:09:39;43.90;;;21.13;;
18793;SDS011;29610;49.022;12.114;2022-07-22T05:12:11;40.43;;;23.10;;
18793;SDS011;29610;49.022;12.114;2022-07-22T05:14:40;35.43;;;19.93;;
18793;SDS011;29610;49.022;12.114;2022-07-22T05:17:09;36.93;;;21.67;;
18793;SDS011;29610;49.022;12.114;2022-07-22T05:19:53;36.37;;;20.23;;
18793;SDS011;29610;49.022;12.114;2022-07-22T05:22:23;36.70;;;20.20;;
18793;SDS011;29610;49.022;12.114;2022-07-22T05:24:53;36.77;;;21.97;;
18793;SDS011;29610;49.022;12.114;2022-07-22T05:27:22;36.37;;;19.17;;
18793;SDS011;29610;49.022;12.114;2022-07-22T05:29:50;35.63;;;19.17;;
18793;SDS011;29610;49.022;12.114;2022-07-22T05:32:19;31.40;;;18.07;;
18793;SDS011;29610;49.022;12.114;2022-07-22T05:34:51;35.07;;;18.43;;
18793;SDS011;29610;49.022;12.114;2022-07-22T05:37:19;33.60;;;19.73;;
18793;SDS011;29610;49.022;12.114;2022-07-22T05:39:49;35.73;;;18.63;;
18793;SDS011;29610;49.022;12.114;2022-07-22T05:42:18;36.37;;;20.50;;
18793;SDS011;29610;49.022;12.114;2022-07-22T05:44:47;35.53;;;19.20;;
18793;SDS011;29610;49.022;12.114;2022-07-22T05:47:16;31.47;;;18.57;;
18793;SDS011;29610;49.022;12.114;2022-07-22T05:49:44;33.40;;;18.97;;
18793;SDS011;29610;49.022;12.114;2022-07-22T05:52:13;32.90;;;17.30;;
18793;SDS011;29610;49.022;12.114;2022-07-22T05:54:42;38.03;;;19.93;;
18793;SDS011;29610;49.022;12.114;2022-07-22T05:57:12;72.60;;;25.33;;
18793;SDS011;29610;49.022;12.114;2022-07-22T05:59:42;33.83;;;18.70;;
18793;SDS011;29610;49.022;12.114;2022-07-22T06:02:10;37.63;;;19.50;;
18793;SDS011;29610;49.022;12.114;2022-07-22T06:04:44;49.87;;;21.13;;
18793;SDS011;29610;49.022;12.114;2022-07-22T06:07:15;39.97;;;21.50;;
18793;SDS011;29610;49.022;12.114;2022-07-22T06:09:49;38.23;;;19.80;;
18793;SDS011;29610;49.022;12.114;2022-07-22T06:12:19;36.53;;;19.83;;
18793;SDS011;29610;49.022;12.114;2022-07-22T06:14:47;38.57;;;21.13;;
18793;SDS011;29610;49.022;12.114;2022-07-22T06:17:16;41.07;;;21.10;;
18793;SDS011;29610;49.022;12.114;2022-07-22T06:19:45;34.57;;;20.30;;
18793;SDS011;29610;49.022;12.114;2022-07-22T06:22:13;33.63;;;20.80;;
18793;SDS011;29610;49.022;12.114;2022-07-22T06:24:44;39.50;;;22.00;;
18793;SDS011;29610;49.022;12.114;2022-07-22T06:27:14;38.03;;;21.67;;
18793;SDS011;29610;49.022;12.114;2022-07-22T06:29:44;35.87;;;19.10;;
18793;SDS011;29610;49.022;12.114;2022-07-22T06:32:13;38.20;;;21.50;;
18793;SDS011;29610;49.022;12.114;2022-07-22T06:34:45;36.33;;;20.13;;
18793;SDS011;29610;49.022;12.114;2022-07-22T06:37:14;38.70;;;22.27;;
18793;SDS011;29610;49.022;12.114;2022-07-22T06:39:42;44.73;;;22.33;;
18793;SDS011;29610;49.022;12.114;2022-07-22T06:42:19;33.03;;;19.50;;
18793;SDS011;29610;49.022;12.114;2022-07-22T06:44:50;38.03;;;21.83;;
18793;SDS011;29610;49.022;12.114;2022-07-22T06:47:55;35.40;;;21.60;;
18793;SDS011;29610;49.022;12.114;2022-07-22T06:50:24;34.60;;;21.53;;
18793;SDS011;29610;49.022;12.114;2022-07-22T06:52:55;38.53;;;22.10;;
18793;SDS011;29610;49.022;12.114;2022-07-22T06:55:24;32.83;;;20.80;;
18793;SDS011;29610;49.022;12.114;2022-07-22T06:58:01;36.00;;;21.13;;
18793;SDS011;29610;49.022;12.114;2022-07-22T07:00:30;35.60;;;19.40;;
18793;SDS011;29610;49.022;12.114;2022-07-22T07:03:17;35.87;;;21.60;;
18793;SDS011;29610;49.022;12.114;2022-07-22T07:06:07;38.03;;;21.80;;
18793;SDS011;29610;49.022;12.114;2022-07-22T07:08:58;33.43;;;19.63;;
18793;SDS011;29610;49.022;12.114;2022-07-22T07:11:28;34.00;;;20.20;;
18793;SDS011;29610;49.022;12.114;2022-07-22T07:13:57;34.47;;;20.50;;
18793;SDS011;29610;49.022;12.114;2022-07-22T07:16:27;35.97;;;21.97;;
18793;SDS011;29610;49.022;12.114;2022-07-22T07:18:55;43.20;;;19.37;;
18793;SDS011;29610;49.022;12.114;2022-07-22T07:21:26;36.43;;;20.30;;
18793;SDS011;29610;49.022;12.114;2022-07-22T07:23:54;37.73;;;19.30;;
18793;SDS011;29610;49.022;12.114;2022-07-22T07:26:25;36.00;;;21.13;;
18793;SDS011;29610;49.022;12.114;2022-07-22T07:28:54;38.83;;;19.30;;
18793;SDS011;29610;49.022;12.114;2022-07-22T07:31:37;37.90;;;21.40;;
18793;SDS011;29610;49.022;12.114;2022-07-22T07:34:12;31.20;;;18.10;;
18793;SDS011;29610;49.022;12.114;2022-07-22T07:36:40;49.77;;;19.37;;
18793;SDS011;29610;49.022;12.114;2022-07-22T07:39:12;30.30;;;17.00;;
18793;SDS011;29610;49.022;12.114;2022-07-22T07:41:42;34.53;;;18.30;;
18793;SDS011;29610;49.022;12.114;2022-07-22T07:44:16;30.33;;;19.10;;
18793;SDS011;29610;49.022;12.114;2022-07-22T07:46:46;33.67;;;19.20;;
18793;SDS011;29610;49.022;12.114;2022-07-22T07:49:15;33.67;;;19.83;;
18793;SDS011;29610;49.022;12.114;2022-07-22T07:51:43;34.10;;;19.87;;
18793;SDS011;29610;49.022;12.114;2022-07-22T07:54:13;30.30;;;15.23;;
18793;SDS011;29610;49.022;12.114;2022-07-22T07:56:44;29.90;;;17.67;;
18793;SDS011;29610;49.022;12.114;2022-07-22T07:59:13;32.27;;;18.93;;
18793;SDS011;29610;49.022;12.114;2022-07-22T08:01:57;32.93;;;19.63;;
18793;SDS011;29610;49.022;12.114;2022-07-22T08:04:28;32.53;;;18.37;;
18793;SDS011;29610;49.022;12.114;2022-07-22T08:07:05;31.57;;;17.00;;
18793;SDS011;29610;49.022;12.114;2022-07-22T08:09:36;32.77;;;17.23;;
18793;SDS011;29610;49.022;12.114;2022-07-22T08:12:13;35.53;;;15.23;;
18793;SDS011;29610;49.022;12.114;2022-07-22T08:15:03;29.00;;;15.10;;
18793;SDS011;29610;49.022;12.114;2022-07-22T08:17:51;29.30;;;14.53;;
18793;SDS011;29610;49.022;12.114;2022-07-22T08:20:21;29.97;;;16.97;;
18793;SDS011;29610;49.022;12.114;2022-07-22T08:22:50;29.43;;;16.20;;
18793;SDS011;29610;49.022;12.114;2022-07-22T08:25:22;25.90;;;13.97;;
18793;SDS011;29610;49.022;12.114;2022-07-22T08:27:51;33.93;;;14.60;;
18793;SDS011;29610;49.022;12.114;2022-07-22T08:30:19;25.47;;;14.40;;
18793;SDS011;29610;49.022;12.114;2022-07-22T08:32:51;28.90;;;15.07;;
18793;SDS011;29610;49.022;12.114;2022-07-22T08:35:20;25.10;;;12.77;;
18793;SDS011;29610;49.022;12.114;2022-07-22T08:37:49;25.40;;;11.23;;
18793;SDS011;29610;49.022;12.114;2022-07-22T08:40:18;25.73;;;12.07;;
18793;SDS011;29610;49.022;12.114;2022-07-22T08:42:48;22.93;;;10.30;;
18793;SDS011;29610;49.022;12.114;2022-07-22T08:45:19;22.43;;;10.40;;
18793;SDS011;29610;49.022;12.114;2022-07-22T08:47:48;23.70;;;10.77;;
18793;SDS011;29610;49.022;12.114;2022-07-22T08:50:59;19.20;;;8.77;;
18793;SDS011;29610;49.022;12.114;2022-07-22T08:53:44;19.43;;;8.63;;
18793;SDS011;29610;49.022;12.114;2022-07-22T08:56:13;19.87;;;8.87;;
18793;SDS011;29610;49.022;12.114;2022-07-22T08:58:42;24.00;;;8.00;;
18793;SDS011;29610;49.022;12.114;2022-07-22T09:01:13;18.17;;;7.40;;
18793;SDS011;29610;49.022;12.114;2022-07-22T09:03:50;18.37;;;6.90;;
18793;SDS011;29610;49.022;12.114;2022-07-22T09:06:27;24.20;;;6.80;;
18793;SDS011;29610;49.022;12.114;2022-07-22T09:09:00;16.50;;;6.07;;
18793;SDS011;29610;49.022;12.114;2022-07-22T09:11:47;17.73;;;7.40;;
18793;SDS011;29610;49.022;12.114;2022-07-22T09:14:55;19.30;;;6.83;;
18793;SDS011;29610;49.022;12.114;2022-07-22T09:17:54;19.30;;;8.27;;
18793;SDS011;29610;49.022;12.114;2022-07-22T09:20:51;24.10;;;10.70;;
18793;SDS011;29610;49.022;12.114;2022-07-22T09:23:38;22.03;;;9.10;;
18793;SDS011;29610;49.022;12.114;2022-07-22T09:26:09;23.93;;;9.63;;
18793;SDS011;29610;49.022;12.114;2022-07-22T09:29:17;20.30;;;9.17;;
18793;SDS011;29610;49.022;12.114;2022-07-22T09:32:10;19.30;;;8.73;;
18793;SDS011;29610;49.022;12.114;2022-07-22T09:34:55;21.63;;;9.80;;
18793;SDS011;29610;49.022;12.114;2022-07-22T09:37:36;23.03;;;10.07;;
18793;SDS011;29610;49.022;12.114;2022-07-22T09:40:15;20.63;;;9.63;;
18793;SDS011;29610;49.022;12.114;2022-07-22T09:42:47;21.60;;;10.93;;
18793;SDS011;29610;49.022;12.114;2022-07-22T09:45:18;20.20;;;9.60;;
18793;SDS011;29610;49.022;12.114;2022-07-22T09:47:49;18.33;;;9.40;;
18793;SDS011;29610;49.022;12.114;2022-07-22T09:50:37;20.57;;;9.80;;
18793;SDS011;29610;49.022;12.114;2022-07-22T09:53:15;24.13;;;10.47;;
18793;SDS011;29610;49.022;12.114;2022-07-22T09:55:55;19.03;;;9.47;;
18793;SDS011;29610;49.022;12.114;2022-07-22T09:58:25;21.60;;;10.33;;
18793;SDS011;29610;49.022;12.114;2022-07-22T10:00:56;21.00;;;9.10;;
18793;SDS011;29610;49.022;12.114;2022-07-22T10:03:33;18.70;;;8.87;;
18793;SDS011;29610;49.022;12.114;2022-07-22T10:06:05;24.83;;;9.03;;
18793;SDS011;29610;49.022;12.114;2022-07-22T10:08:37;20.27;;;9.70;;
18793;SDS011;29610;49.022;12.114;2022-07-22T10:11:07;19.60;;;9.37;;
18793;SDS011;29610;49.022;12.114;2022-07-22T10:13:38;20.60;;;9.20;;
18793;SDS011;29610;49.022;12.114;2022-07-22T10:16:09;23.90;;;9.50;;
18793;SDS011;29610;49.022;12.114;2022-07-22T10:18:39;21.97;;;9.90;;
18793;SDS011;29610;49.022;12.114;2022-07-22T10:21:16;18.80;;;8.67;;
18793;SDS011;29610;49.022;12.114;2022-07-22T10:26:54;19.10;;;8.83;;
18793;SDS011;29610;49.022;12.114;2022-07-22T10:29:28;22.23;;;9.17;;
18793;SDS011;29610;49.022;12.114;2022-07-22T10:37:54;28.13;;;8.57;;
18793;SDS011;29610;49.022;12.114;2022-07-22T10:40:29;21.53;;;8.70;;
18793;SDS011;29610;49.022;12.114;2022-07-22T10:43:14;21.83;;;8.50;;
18793;SDS011;29610;49.022;12.114;2022-07-22T10:45:47;22.53;;;9.13;;
18793;SDS011;29610;49.022;12.114;2022-07-22T10:48:19;18.90;;;8.13;;
18793;SDS011;29610;49.022;12.114;2022-07-22T10:50:55;16.30;;;7.50;;
18793;SDS011;29610;49.022;12.114;2022-07-22T10:53:39;17.93;;;7.63;;
18793;SDS011;29610;49.022;12.114;2022-07-22T10:56:18;18.10;;;6.87;;
18793;SDS011;29610;49.022;12.114;2022-07-22T10:58:53;19.97;;;8.50;;
18793;SDS011;29610;49.022;12.114;2022-07-22T11:01:26;17.77;;;6.50;;
18793;SDS011;29610;49.022;12.114;2022-07-22T11:06:45;19.33;;;7.00;;
18793;SDS011;29610;49.022;12.114;2022-07-22T11:09:16;16.87;;;8.50;;
18793;SDS011;29610;49.022;12.114;2022-07-22T11:11:50;15.87;;;7.00;;
18793;SDS011;29610;49.022;12.114;2022-07-22T11:14:22;19.27;;;8.43;;
18793;SDS011;29610;49.022;12.114;2022-07-22T11:16:54;17.90;;;7.60;;
18793;SDS011;29610;49.022;12.114;2022-07-22T11:19:26;20.47;;;7.23;;
18793;SDS011;29610;49.022;12.114;2022-07-22T11:21:59;21.37;;;7.57;;
18793;SDS011;29610;49.022;12.114;2022-07-22T11:24:32;18.97;;;7.00;;
18793;SDS011;29610;49.022;12.114;2022-07-22T11:32:20;14.50;;;6.10;;
18793;SDS011;29610;49.022;12.114;2022-07-22T11:34:55;15.60;;;6.10;;
18793;SDS011;29610;49.022;12.114;2022-07-22T11:37:27;15.60;;;5.70;;
18793;SDS011;29610;49.022;12.114;2022-07-22T11:39:58;15.60;;;6.23;;
18793;SDS011;29610;49.022;12.114;2022-07-22T11:42:30;15.23;;;6.10;;
18793;SDS011;29610;49.022;12.114;2022-07-22T11:45:01;23.27;;;6.23;;
18793;SDS011;29610;49.022;12.114;2022-07-22T11:47:36;18.27;;;6.77;;
18793;SDS011;29610;49.022;12.114;2022-07-22T11:50:06;18.23;;;7.00;;
18793;SDS011;29610;49.022;12.114;2022-07-22T11:52:36;17.43;;;5.40;;
18793;SDS011;29610;49.022;12.114;2022-07-22T11:55:13;16.50;;;6.37;;
18793;SDS011;29610;49.022;12.114;2022-07-22T11:57:46;17.23;;;6.53;;
18793;SDS011;29610;49.022;12.114;2022-07-22T12:00:16;16.43;;;7.17;;
18793;SDS011;29610;49.022;12.114;2022-07-22T12:02:47;16.07;;;6.50;;
18793;SDS011;29610;49.022;12.114;2022-07-22T12:05:16;15.53;;;6.97;;
18793;SDS011;29610;49.022;12.114;2022-07-22T12:08:00;14.23;;;6.07;;
18793;SDS011;29610;49.022;12.114;2022-07-22T12:10:30;19.33;;;7.50;;
18793;SDS011;29610;49.022;12.114;2022-07-22T12:12:59;15.50;;;6.30;;
18793;SDS011;29610;49.022;12.114;2022-07-22T12:15:28;15.47;;;6.47;;
18793;SDS011;29610;49.022;12.114;2022-07-22T12:18:17;15.67;;;6.30;;
18793;SDS011;29610;49.022;12.114;2022-07-22T12:20:48;15.50;;;5.63;;
18793;SDS011;29610;49.022;12.114;2022-07-22T12:23:20;15.30;;;6.07;;
18793;SDS011;29610;49.022;12.114;2022-07-22T12:25:52;18.10;;;5.90;;
18793;SDS011;29610;49.022;12.114;2022-07-22T12:28:25;18.53;;;7.10;;
18793;SDS011;29610;49.022;12.114;2022-07-22T12:30:55;15.27;;;5.90;;
18793;SDS011;29610;49.022;12.114;2022-07-22T12:33:26;16.00;;;6.17;;
18793;SDS011;29610;49.022;12.114;2022-07-22T12:35:58;17.80;;;7.00;;
18793;SDS011;29610;49.022;12.114;2022-07-22T12:38:36;18.80;;;7.13;;
18793;SDS011;29610;49.022;12.114;2022-07-22T12:41:26;23.60;;;7.63;;
18793;SDS011;29610;49.022;12.114;2022-07-22T12:43:56;17.63;;;7.17;;
18793;SDS011;29610;49.022;12.114;2022-07-22T12:46:27;16.50;;;7.43;;
18793;SDS011;29610;49.022;12.114;2022-07-22T12:48:57;16.10;;;7.53;;
18793;SDS011;29610;49.022;12.114;2022-07-22T12:51:27;15.70;;;6.80;;
18793;SDS011;29610;49.022;12.114;2022-07-22T12:53:56;20.63;;;7.17;;
18793;SDS011;29610;49.022;12.114;2022-07-22T12:56:26;17.10;;;7.13;;
18793;SDS011;29610;49.022;12.114;2022-07-22T12:59:02;16.07;;;6.03;;
18793;SDS011;29610;49.022;12.114;2022-07-22T13:01:30;17.40;;;6.33;;
18793;SDS011;29610;49.022;12.114;2022-07-22T13:04:00;15.20;;;5.70;;
18793;SDS011;29610;49.022;12.114;2022-07-22T13:06:30;15.60;;;7.53;;
18793;SDS011;29610;49.022;12.114;2022-07-22T13:08:58;14.50;;;6.20;;
18793;SDS011;29610;49.022;12.114;2022-07-22T13:11:27;14.73;;;6.50;;
18793;SDS011;29610;49.022;12.114;2022-07-22T13:13:55;15.97;;;6.70;;
18793;SDS011;29610;49.022;12.114;2022-07-22T13:16:24;16.20;;;6.70;;
18793;SDS011;29610;49.022;12.114;2022-07-22T13:18:53;14.20;;;5.80;;
18793;SDS011;29610;49.022;12.114;2022-07-22T13:21:23;13.97;;;5.80;;
18793;SDS011;29610;49.022;12.114;2022-07-22T13:23:53;15.17;;;6.60;;
18793;SDS011;29610;49.022;12.114;2022-07-22T13:26:22;17.23;;;6.57;;
18793;SDS011;29610;49.022;12.114;2022-07-22T13:28:51;14.90;;;6.07;;
18793;SDS011;29610;49.022;12.114;2022-07-22T13:31:20;19.73;;;6.50;;
18793;SDS011;29610;49.022;12.114;2022-07-22T13:33:48;15.17;;;7.03;;
18793;SDS011;29610;49.022;12.114;2022-07-22T13:36:17;15.00;;;5.83;;
18793;SDS011;29610;49.022;12.114;2022-07-22T13:38:47;20.30;;;7.20;;
18793;SDS011;29610;49.022;12.114;2022-07-22T13:41:17;16.50;;;6.43;;
18793;SDS011;29610;49.022;12.114;2022-07-22T13:43:46;15.07;;;6.30;;
18793;SDS011;29610;49.022;12.114;2022-07-22T13:46:15;15.07;;;6.23;;
18793;SDS011;29610;49.022;12.114;2022-07-22T13:48:45;20.43;;;6.80;;
18793;SDS011;29610;49.022;12.114;2022-07-22T13:51:13;18.70;;;6.40;;
18793;SDS011;29610;49.022;12.114;2022-07-22T13:53:42;15.07;;;6.40;;
18793;SDS011;29610;49.022;12.114;2022-07-22T13:56:12;14.40;;;6.77;;
18793;SDS011;29610;49.022;12.114;2022-07-22T13:58:41;16.27;;;7.20;;
18793;SDS011;29610;49.022;12.114;2022-07-22T14:01:10;17.03;;;6.40;;
18793;SDS011;29610;49.022;12.114;2022-07-22T14:03:39;19.30;;;7.07;;
18793;SDS011;29610;49.022;12.114;2022-07-22T14:06:09;15.80;;;7.00;;
18793;SDS011;29610;49.022;12.114;2022-07-22T14:08:37;16.87;;;6.23;;
18793;SDS011;29610;49.022;12.114;2022-07-22T14:11:06;19.23;;;6.73;;
18793;SDS011;29610;49.022;12.114;2022-07-22T14:13:36;18.00;;;6.70;;
18793;SDS011;29610;49.022;12.114;2022-07-22T14:16:06;18.53;;;6.73;;
18793;SDS011;29610;49.022;12.114;2022-07-22T14:19:13;15.90;;;6.37;;
18793;SDS011;29610;49.022;12.114;2022-07-22T14:21:44;15.63;;;6.60;;
18793;SDS011;29610;49.022;12.114;2022-07-22T14:24:13;18.77;;;7.30;;
18793;SDS011;29610;49.022;12.114;2022-07-22T14:26:42;21.70;;;7.07;;
18793;SDS011;29610;49.022;12.114;2022-07-22T14:29:12;15.23;;;6.40;;
18793;SDS011;29610;49.022;12.114;2022-07-22T14:31:41;16.00;;;6.00;;
18793;SDS011;29610;49.022;12.114;2022-07-22T14:34:10;18.90;;;6.97;;
18793;SDS011;29610;49.022;12.114;2022-07-22T14:36:38;17.27;;;6.70;;
18793;SDS011;29610;49.022;12.114;2022-07-22T14:39:07;19.43;;;7.17;;
18793;SDS011;29610;49.022;12.114;2022-07-22T14:41:36;18.27;;;7.53;;
18793;SDS011;29610;49.022;12.114;2022-07-22T14:44:05;16.70;;;6.87;;
18793;SDS011;29610;49.022;12.114;2022-07-22T14:46:35;20.23;;;6.63;;
18793;SDS011;29610;49.022;12.114;2022-07-22T14:49:03;17.13;;;6.77;;
18793;SDS011;29610;49.022;12.114;2022-07-22T14:51:40;18.50;;;7.70;;
18793;SDS011;29610;49.022;12.114;2022-07-22T14:54:09;16.10;;;7.40;;
18793;SDS011;29610;49.022;12.114;2022-07-22T14:56:38;16.97;;;7.47;;
18793;SDS011;29610;49.022;12.114;2022-07-22T14:59:07;16.80;;;7.00;;